SCELSCAR

Guest
Details From SCEL - Arturo Merino Benitez Intl
To SCAR - CHACALLUTA
Flight Number -
Tags decoded
Created
Modified
Stats Distance 942 nm / 1,744 km
Max Altitude 0 ft / 0 m
Waypoints 8
Social Downloads 0
Likes 0
Share VATSIM

Download

Looking for another format? Having issues loading an existing format? Contact us
Advertisement - Login to hide

Notes

Requested: SCEL DESIT ELBOS VTN TOY ALDER TIVIL TUNIN SCAR

Route

SCEL DESIT ELBOS VTN TOY ALDER TIVIL SCAR

ID Type Via Altitude Latitude Longitude Leg Dist Tot Dist Heading (true) Name
O SCEL APT - 0 ft / 0 m -33.38978˚ -70.79437˚ - 0 nm - Arturo Merino Benitez Intl
DESIT FIX - 0 ft / 0 m -33.53663˚ -70.77951˚ 8 nm 8 nm 175° / 175° -
ELBOS FIX - 0 ft / 0 m -33.47500˚ -71.12278˚ 17 nm 26 nm 282° / 282° -
VTN VOR - 0 ft / 0 m -32.73861˚ -71.49611˚ 48 nm 74 nm 337° / 337° VENTANAS VOR-DME
TOY NDB - 0 ft / 0 m -30.26306˚ -71.47972˚ 148 nm 223 nm 0° / 0° TONGOY NDB
ALDER FIX - 0 ft / 0 m -27.09707˚ -71.15110˚ 190 nm 414 nm 5° / 5° -
TIVIL FIX - 0 ft / 0 m -19.41707˚ -70.55051˚ 462 nm 876 nm 4° / 4° -
O SCAR APT - 0 ft / 0 m -18.34853˚ -70.33874˚ 65 nm 941 nm 11° / 11° CHACALLUTA

Altitude Profile

Advertisement - Login to hide

Weather


0- 5 10 15 20 25 30 35+ Temperature / ° C

Clouds and Precipitation
Forecast for 2017-12-15 12:00 UTC. Updated an hour ago

Ground ~20,000 ft ~40,000 ft Winds

SCEL

Details ICAO SCEL (SCL)
Name Arturo Merino Benitez Intl
Region Chile
Timezone America/Santiago (UTC-3.0)
Stats Elevation 1,550 ft / 472 m (AMSL)
Location -33.389775° -70.794366°
Runways 2
Magnetic Variation 1.801° E

METAR

SCEL 150800Z 07004KT 030V150 CAVOK 17/08 Q1011 NOSIG

Decode

TAF

TAF SCEL 150405Z 1506/1606 19010KT 8000 NSC TX34/1519Z TN17/1510Z TEMPO 1508/1515 VRB03KT 5000 HZ BECMG 1601/1603 VRB03KT CAVOK

Decode

Departure Runways

ID Width Length Bearing (true) Bearing (mag) Surface Threshold Offset Overrun Length
17L 180 ft / 55 m 10,523 ft / 3,207 m 177.43° 175.63° Asphalt 0 ft / 0 m 0 ft / 0 m
17R 148 ft / 45 m 12,504 ft / 3,811 m 177.44° 175.64° Asphalt 0 ft / 0 m 0 ft / 0 m
35L 148 ft / 45 m 12,504 ft / 3,811 m 357.44° 355.64° Asphalt 0 ft / 0 m 0 ft / 0 m
35R 180 ft / 55 m 10,523 ft / 3,207 m 357.43° 355.63° Asphalt 1,800 ft / 549 m 0 ft / 0 m

SCAR

Details ICAO SCAR (ARI)
Name CHACALLUTA
Region Chile
Timezone America/Santiago (UTC-3.0)
Stats Elevation 167 ft / 51 m (AMSL)
Location -18.348530° -70.338741°
Runways 1
Magnetic Variation 5.489° W

METAR

SCAR 150800Z 00000KT CAVOK 19/13 Q1013

Decode

TAF

TAF SCAR 150412Z 1506/1606 06004KT CAVOK TN16/1506Z TX22/1517Z BECMG 1515/1517 22014KT BECMG 1600/1602 17004KT BECMG 1604/1606 04004KT

Decode

Destination Runways

ID Width Length Bearing (true) Bearing (mag) Surface Threshold Offset Overrun Length
02 148 ft / 45 m 7,184 ft / 2,190 m 19.17° 24.66° Asphalt 0 ft / 0 m 2,075 ft / 632 m
20 148 ft / 45 m 7,184 ft / 2,190 m 199.17° 204.66° Asphalt 0 ft / 0 m 197 ft / 60 m

Popular Alternatives